createdAt,value
2018-12-17T00:01:03.504Z,45.20
2018-12-17T00:03:34.849Z,48.17
2018-12-17T00:06:06.103Z,46.27
2018-12-17T00:08:35.277Z,46.20
2018-12-17T00:11:04.802Z,35.17
2018-12-17T00:13:34.019Z,41.83
2018-12-17T00:16:03.118Z,44.27
2018-12-17T00:18:32.368Z,37.93
2018-12-17T00:21:01.554Z,34.73
2018-12-17T00:23:30.672Z,35.83
2018-12-17T00:25:59.673Z,36.90
2018-12-17T00:28:28.876Z,38.10
2018-12-17T00:30:57.899Z,35.70
2018-12-17T00:33:27.064Z,35.20
2018-12-17T00:35:56.311Z,36.70
2018-12-17T00:38:25.564Z,35.37
2018-12-17T00:40:54.570Z,39.23
2018-12-17T00:43:23.962Z,38.10
2018-12-17T00:45:53.137Z,40.23
2018-12-17T00:48:22.406Z,40.13
2018-12-17T00:50:51.687Z,38.63
2018-12-17T00:53:20.727Z,36.23
2018-12-17T00:55:49.780Z,39.40
2018-12-17T00:58:19.018Z,35.80
2018-12-17T01:00:48.262Z,41.07
2018-12-17T01:03:17.320Z,38.90
2018-12-17T01:05:46.428Z,41.83
2018-12-17T01:08:15.478Z,41.60
2018-12-17T01:10:44.516Z,37.53
2018-12-17T01:13:13.590Z,41.13
2018-12-17T01:15:42.834Z,41.40
2018-12-17T01:18:11.977Z,39.20
2018-12-17T01:20:41.136Z,41.47
2018-12-17T01:23:10.223Z,40.93
2018-12-17T01:25:39.221Z,43.83
2018-12-17T01:28:08.319Z,40.50
2018-12-17T01:30:37.312Z,38.10
2018-12-17T01:33:06.306Z,37.57
2018-12-17T01:35:35.381Z,37.00
2018-12-17T01:38:04.419Z,38.77
2018-12-17T01:40:34.083Z,37.83
2018-12-17T01:43:03.128Z,38.33
2018-12-17T01:45:32.217Z,39.03
2018-12-17T01:48:01.199Z,36.90
2018-12-17T01:50:30.342Z,35.93
2018-12-17T01:52:59.373Z,35.87
2018-12-17T01:55:28.516Z,37.53
2018-12-17T01:57:57.644Z,37.20
2018-12-17T02:00:26.757Z,35.60
2018-12-17T02:02:55.773Z,33.80
2018-12-17T02:05:24.844Z,33.13
2018-12-17T02:07:53.951Z,31.93
2018-12-17T02:10:22.944Z,34.57
2018-12-17T02:12:51.953Z,33.40
2018-12-17T02:15:20.956Z,33.47
2018-12-17T02:17:49.989Z,36.87
2018-12-17T02:20:19.100Z,37.50
2018-12-17T02:22:48.110Z,35.80
2018-12-17T02:25:17.136Z,37.70
2018-12-17T02:27:46.245Z,38.23
2018-12-17T02:30:15.400Z,38.13
2018-12-17T02:32:44.414Z,35.50
2018-12-17T02:35:13.437Z,34.40
2018-12-17T02:37:42.636Z,36.77
2018-12-17T02:40:11.681Z,35.43
2018-12-17T02:42:40.775Z,33.93
2018-12-17T02:45:09.985Z,35.70
2018-12-17T02:47:38.997Z,35.90
2018-12-17T02:50:08.201Z,37.90
2018-12-17T02:52:37.376Z,37.03
2018-12-17T02:55:07.166Z,37.87
2018-12-17T02:57:36.289Z,38.10
2018-12-17T03:00:06.791Z,40.10
2018-12-17T03:02:37.857Z,42.20
2018-12-17T03:05:08.466Z,39.13
2018-12-17T03:07:37.705Z,37.50
2018-12-17T03:10:07.230Z,36.10
2018-12-17T03:12:36.364Z,34.47
2018-12-17T03:15:06.558Z,35.20
2018-12-17T03:17:35.684Z,35.53
2018-12-17T03:20:05.102Z,36.93
2018-12-17T03:22:34.137Z,36.53
2018-12-17T03:25:03.449Z,37.07
2018-12-17T03:27:32.473Z,37.10
2018-12-17T03:30:01.538Z,37.40
2018-12-17T03:32:31.345Z,37.93
2018-12-17T03:35:00.393Z,36.27
2018-12-17T03:37:29.443Z,37.70
2018-12-17T03:39:58.534Z,39.03
2018-12-17T03:42:27.618Z,38.70
2018-12-17T03:44:56.737Z,40.03
2018-12-17T03:47:25.738Z,39.03
2018-12-17T03:49:56.708Z,40.77
2018-12-17T03:52:25.759Z,41.70
2018-12-17T03:54:54.811Z,42.67
2018-12-17T03:57:24.053Z,42.37
2018-12-17T03:59:53.059Z,43.23
2018-12-17T04:02:22.086Z,41.13
2018-12-17T04:04:51.389Z,43.37
2018-12-17T04:07:20.391Z,42.07
2018-12-17T04:09:49.740Z,43.80
2018-12-17T04:12:18.865Z,43.27
2018-12-17T04:14:47.897Z,43.50
2018-12-17T04:17:17.044Z,42.03
2018-12-17T04:19:46.177Z,43.33
2018-12-17T04:22:15.234Z,42.47
2018-12-17T04:24:44.308Z,41.97
2018-12-17T04:27:13.350Z,42.53
2018-12-17T04:29:42.627Z,42.00
2018-12-17T04:32:11.704Z,43.17
2018-12-17T04:34:40.984Z,44.27
2018-12-17T04:37:10.121Z,41.50
2018-12-17T04:39:39.173Z,41.67
2018-12-17T04:42:08.262Z,42.07
2018-12-17T04:44:37.314Z,41.90
2018-12-17T04:47:06.433Z,41.77
2018-12-17T04:49:35.506Z,42.77
2018-12-17T04:52:04.642Z,42.50
2018-12-17T04:54:33.777Z,42.27
2018-12-17T04:57:02.774Z,42.10
2018-12-17T04:59:31.762Z,42.30
2018-12-17T05:02:00.817Z,41.30
2018-12-17T05:04:29.878Z,41.60
2018-12-17T05:06:59.000Z,40.83
2018-12-17T05:09:28.082Z,41.60
2018-12-17T05:11:57.144Z,43.90
2018-12-17T05:14:26.194Z,42.57
2018-12-17T05:16:55.217Z,42.63
2018-12-17T05:19:24.298Z,44.33
2018-12-17T05:21:53.400Z,41.60
2018-12-17T05:24:22.467Z,45.77
2018-12-17T05:26:51.538Z,42.37
2018-12-17T05:29:21.605Z,43.17
2018-12-17T05:31:51.029Z,46.83
2018-12-17T05:34:20.054Z,44.47
2018-12-17T05:36:49.101Z,43.73
2018-12-17T05:39:18.337Z,43.87
2018-12-17T05:41:47.366Z,44.80
2018-12-17T05:44:16.434Z,46.47
2018-12-17T05:46:46.484Z,47.30
2018-12-17T05:49:15.766Z,46.00
2018-12-17T05:51:44.927Z,46.17
2018-12-17T05:54:14.030Z,46.00
2018-12-17T05:56:43.161Z,49.07
2018-12-17T05:59:12.233Z,47.53
2018-12-17T06:01:41.344Z,49.17
2018-12-17T06:04:11.350Z,48.90
2018-12-17T06:06:40.390Z,48.87
2018-12-17T06:09:12.513Z,49.67
2018-12-17T06:11:41.657Z,47.63
2018-12-17T06:14:10.710Z,47.37
2018-12-17T06:16:39.789Z,47.37
2018-12-17T06:19:08.893Z,46.93
2018-12-17T06:21:38.041Z,46.80
2018-12-17T06:24:07.153Z,52.53
2018-12-17T06:26:36.214Z,51.83
2018-12-17T06:29:05.345Z,47.73
2018-12-17T06:31:34.516Z,47.13
2018-12-17T06:34:03.612Z,45.37
2018-12-17T06:36:32.613Z,46.97
2018-12-17T06:39:01.614Z,45.97
2018-12-17T06:41:32.690Z,47.97
2018-12-17T06:44:01.905Z,48.73
2018-12-17T06:46:30.964Z,50.50
2018-12-17T06:49:00.087Z,47.87
2018-12-17T06:51:29.307Z,48.83
2018-12-17T06:53:58.350Z,47.83
2018-12-17T06:56:27.394Z,53.30
2018-12-17T06:58:56.453Z,54.77
2018-12-17T07:01:25.616Z,55.50
2018-12-17T07:03:54.637Z,52.43
2018-12-17T07:06:23.796Z,54.97
2018-12-17T07:08:52.943Z,53.20
2018-12-17T07:11:22.158Z,54.97
2018-12-17T07:13:51.363Z,56.03
2018-12-17T07:16:20.474Z,54.37
2018-12-17T07:18:49.645Z,51.07
2018-12-17T07:21:18.751Z,52.80
2018-12-17T07:23:48.185Z,50.83
2018-12-17T07:26:17.161Z,51.40
2018-12-17T07:28:46.173Z,50.97
2018-12-17T07:31:15.254Z,52.07
2018-12-17T07:33:44.306Z,56.17
2018-12-17T07:36:13.514Z,54.90
2018-12-17T07:38:42.537Z,57.00
2018-12-17T07:41:11.520Z,57.10
2018-12-17T07:43:40.969Z,58.90
2018-12-17T07:46:10.057Z,58.33
2018-12-17T07:48:39.195Z,58.27
2018-12-17T07:51:08.184Z,53.80
2018-12-17T07:53:37.398Z,53.90
2018-12-17T07:56:06.478Z,51.87
2018-12-17T07:58:36.594Z,52.80
2018-12-17T08:01:05.781Z,54.07
2018-12-17T08:03:34.882Z,59.93
2018-12-17T08:06:04.016Z,59.80
2018-12-17T08:08:35.523Z,58.63
2018-12-17T08:11:04.249Z,62.77
2018-12-17T08:13:33.483Z,59.33
2018-12-17T08:16:02.817Z,59.43
2018-12-17T08:18:31.909Z,59.33
2018-12-17T08:21:00.922Z,57.60
2018-12-17T08:23:30.030Z,53.87
2018-12-17T08:25:59.193Z,55.33
2018-12-17T08:28:28.356Z,54.60
2018-12-17T08:30:57.461Z,56.93
2018-12-17T08:33:26.514Z,58.10
2018-12-17T08:35:55.755Z,60.83
2018-12-17T08:38:24.798Z,53.87
2018-12-17T08:40:53.854Z,55.60
2018-12-17T08:43:22.930Z,61.80
2018-12-17T08:45:52.082Z,61.27
2018-12-17T08:48:21.170Z,59.40
2018-12-17T08:50:50.249Z,60.13
2018-12-17T08:53:19.294Z,61.37
2018-12-17T08:55:48.354Z,69.30
2018-12-17T08:58:17.729Z,70.23
2018-12-17T09:00:46.900Z,54.97
2018-12-17T09:03:16.057Z,52.93
2018-12-17T09:05:45.110Z,53.67
2018-12-17T09:08:14.208Z,53.60
2018-12-17T09:10:43.366Z,55.83
2018-12-17T09:13:12.614Z,79.33
2018-12-17T09:15:41.939Z,66.03
2018-12-17T09:18:10.969Z,65.60
2018-12-17T09:20:39.987Z,58.03
2018-12-17T09:23:09.007Z,58.23
2018-12-17T09:25:38.173Z,56.53
2018-12-17T09:28:07.388Z,53.83
2018-12-17T09:30:41.281Z,55.47
2018-12-17T09:33:07.500Z,57.73
2018-12-17T09:35:36.597Z,55.90
2018-12-17T09:38:05.762Z,56.03
2018-12-17T09:40:34.918Z,50.17
2018-12-17T09:43:04.040Z,52.07
2018-12-17T09:45:33.489Z,51.93
2018-12-17T09:48:02.961Z,54.63
2018-12-17T09:50:32.599Z,51.50
2018-12-17T09:53:01.722Z,51.10
2018-12-17T09:55:30.800Z,50.27
2018-12-17T09:58:00.394Z,48.97
2018-12-17T10:00:29.804Z,46.57
2018-12-17T10:02:58.969Z,48.80
2018-12-17T10:05:28.005Z,47.07
2018-12-17T10:07:57.047Z,48.70
2018-12-17T10:10:26.197Z,47.97
2018-12-17T10:12:55.363Z,46.20
2018-12-17T10:15:24.406Z,45.80
2018-12-17T10:17:53.841Z,45.97
2018-12-17T10:20:23.052Z,44.83
2018-12-17T10:22:52.385Z,42.93
2018-12-17T10:25:21.864Z,41.27
2018-12-17T10:27:51.234Z,43.30
2018-12-17T10:30:20.624Z,53.37
2018-12-17T10:32:49.739Z,44.47
2018-12-17T10:35:19.013Z,44.60
2018-12-17T10:37:48.525Z,45.97
2018-12-17T10:40:18.010Z,47.37
2018-12-17T10:42:47.500Z,46.37
2018-12-17T10:45:16.913Z,67.13
2018-12-17T10:47:46.319Z,158.90
2018-12-17T10:50:15.769Z,136.50
2018-12-17T10:52:45.221Z,69.70
2018-12-17T10:55:14.363Z,51.83
2018-12-17T10:57:43.505Z,45.00
2018-12-17T11:00:17.537Z,57.03
2018-12-17T11:02:46.648Z,53.03
2018-12-17T11:05:17.261Z,41.17
2018-12-17T11:07:46.284Z,43.17
2018-12-17T11:10:15.478Z,43.77
2018-12-17T11:12:45.906Z,45.93
2018-12-17T11:15:15.053Z,43.37
2018-12-17T11:17:44.786Z,44.87
2018-12-17T11:20:13.998Z,42.33
2018-12-17T11:22:43.369Z,42.50
2018-12-17T11:25:12.390Z,42.00
2018-12-17T11:27:41.578Z,43.60
2018-12-17T11:30:12.895Z,44.17
2018-12-17T11:32:44.306Z,47.33
2018-12-17T11:35:13.476Z,48.60
2018-12-17T11:37:42.517Z,45.77
2018-12-17T11:40:11.666Z,44.57
2018-12-17T11:42:40.690Z,44.90
2018-12-17T11:45:09.805Z,42.40
2018-12-17T11:47:39.961Z,44.20
2018-12-17T11:50:09.261Z,45.03
2018-12-17T11:52:38.629Z,44.03
2018-12-17T11:55:08.072Z,44.00
2018-12-17T11:58:11.862Z,45.07
2018-12-17T12:00:53.896Z,43.60
2018-12-17T12:03:23.573Z,44.27
2018-12-17T12:05:52.701Z,42.23
2018-12-17T12:08:21.816Z,42.40
2018-12-17T12:10:51.688Z,40.93
2018-12-17T12:13:20.739Z,40.43
2018-12-17T12:15:49.956Z,42.73
2018-12-17T12:18:19.025Z,36.80
2018-12-17T12:20:48.283Z,33.80
2018-12-17T12:23:17.361Z,31.40
2018-12-17T12:25:46.457Z,33.00
2018-12-17T12:28:15.542Z,35.93
2018-12-17T12:30:44.719Z,35.70
2018-12-17T12:33:13.834Z,37.80
2018-12-17T12:35:42.996Z,41.67
2018-12-17T12:38:12.017Z,40.60
2018-12-17T12:40:41.210Z,40.97
2018-12-17T12:43:10.366Z,44.50
2018-12-17T12:45:39.493Z,47.00
2018-12-17T12:48:08.580Z,46.30
2018-12-17T12:50:38.840Z,48.23
2018-12-17T12:53:09.953Z,46.43
2018-12-17T12:55:38.988Z,45.87
2018-12-17T12:58:08.120Z,45.43
2018-12-17T13:00:37.619Z,47.00
2018-12-17T13:03:06.664Z,47.30
2018-12-17T13:05:35.702Z,47.70
2018-12-17T13:08:04.954Z,46.53
2018-12-17T13:10:34.017Z,47.43
2018-12-17T13:13:03.090Z,46.70
2018-12-17T13:15:32.163Z,51.73
2018-12-17T13:18:01.253Z,50.70
2018-12-17T13:20:30.424Z,51.37
2018-12-17T13:22:59.493Z,48.27
2018-12-17T13:25:33.420Z,50.37
2018-12-17T13:28:02.457Z,48.23
2018-12-17T13:30:31.546Z,51.10
2018-12-17T13:33:00.735Z,50.60
2018-12-17T13:35:29.736Z,52.10
2018-12-17T13:37:58.947Z,53.00
2018-12-17T13:40:28.090Z,52.87
2018-12-17T13:42:57.114Z,53.47
2018-12-17T13:45:26.202Z,51.87
2018-12-17T13:47:55.325Z,53.83
2018-12-17T13:50:30.157Z,55.30
2018-12-17T13:53:04.884Z,55.40
2018-12-17T13:55:34.077Z,56.87
2018-12-17T13:58:03.206Z,74.70
2018-12-17T14:00:32.375Z,79.07
2018-12-17T14:03:01.537Z,84.57
2018-12-17T14:05:30.741Z,85.17
2018-12-17T14:07:59.769Z,88.17
2018-12-17T14:10:34.260Z,119.97
2018-12-17T14:13:03.549Z,110.63
2018-12-17T14:15:38.073Z,105.50
2018-12-17T14:18:11.477Z,104.40
2018-12-17T14:20:45.891Z,102.57
2018-12-17T14:23:14.993Z,99.10
2018-12-17T14:25:44.180Z,97.43
2018-12-17T14:28:13.318Z,97.77
2018-12-17T14:30:42.402Z,94.00
2018-12-17T14:33:11.504Z,93.43
2018-12-17T14:35:44.722Z,91.37
2018-12-17T14:38:13.917Z,101.07
2018-12-17T14:40:42.963Z,108.07
2018-12-17T14:43:12.041Z,124.00
2018-12-17T14:45:41.136Z,144.90
2018-12-17T14:48:10.504Z,142.37
2018-12-17T14:50:39.577Z,145.47
2018-12-17T14:53:08.757Z,153.97
2018-12-17T14:55:37.893Z,140.33
2018-12-17T14:58:08.188Z,136.10
2018-12-17T15:00:37.242Z,140.63
2018-12-17T15:03:06.267Z,145.03
2018-12-17T15:05:35.390Z,142.77
2018-12-17T15:08:04.584Z,142.07
2018-12-17T15:10:33.781Z,144.60
2018-12-17T15:13:02.813Z,136.20
2018-12-17T15:15:31.893Z,123.73
2018-12-17T15:18:00.897Z,109.93
2018-12-17T15:20:29.931Z,111.63
2018-12-17T15:22:59.127Z,112.30
2018-12-17T15:25:28.176Z,105.57
2018-12-17T15:27:57.578Z,87.20
2018-12-17T15:30:26.771Z,78.27
2018-12-17T15:32:55.833Z,77.60
2018-12-17T15:35:24.851Z,77.60
2018-12-17T15:37:53.849Z,77.50
2018-12-17T15:40:23.861Z,79.13
2018-12-17T15:42:53.176Z,80.67
2018-12-17T15:45:22.207Z,78.10
2018-12-17T15:47:51.273Z,78.63
2018-12-17T15:50:20.429Z,81.57
2018-12-17T15:52:49.557Z,82.13
2018-12-17T15:55:18.673Z,79.23
2018-12-17T15:57:47.793Z,79.87
2018-12-17T16:00:16.986Z,83.00
2018-12-17T16:02:46.136Z,90.27
2018-12-17T16:05:15.311Z,83.30
2018-12-17T16:07:44.350Z,88.93
2018-12-17T16:10:13.974Z,95.80
2018-12-17T16:12:43.032Z,86.27
2018-12-17T16:15:12.138Z,70.03
2018-12-17T16:17:41.324Z,66.17
2018-12-17T16:20:11.551Z,65.03
2018-12-17T16:22:40.722Z,65.87
2018-12-17T16:25:09.801Z,65.73
2018-12-17T16:27:38.781Z,74.73
2018-12-17T16:30:10.196Z,79.57
2018-12-17T16:32:39.278Z,76.67
2018-12-17T16:35:08.610Z,79.63
2018-12-17T16:37:37.729Z,78.50
2018-12-17T16:40:07.699Z,78.13
2018-12-17T16:42:36.917Z,74.80
2018-12-17T16:45:07.852Z,75.40
2018-12-17T16:47:37.058Z,74.77
2018-12-17T16:50:08.104Z,77.67
2018-12-17T16:52:37.155Z,75.43
2018-12-17T16:55:06.413Z,78.20
2018-12-17T16:57:35.530Z,81.43
2018-12-17T17:00:05.946Z,80.97
2018-12-17T17:02:35.251Z,77.87
2018-12-17T17:05:04.825Z,79.70
2018-12-17T17:07:34.041Z,80.03
2018-12-17T17:10:06.208Z,81.20
2018-12-17T17:12:35.330Z,86.60
2018-12-17T17:15:06.069Z,87.17
2018-12-17T17:17:36.917Z,89.13
2018-12-17T17:20:06.461Z,87.30
2018-12-17T17:22:35.508Z,84.87
2018-12-17T17:25:05.286Z,88.17
2018-12-17T17:27:34.561Z,85.10
2018-12-17T17:30:04.244Z,83.87
2018-12-17T17:32:33.497Z,85.70
2018-12-17T17:35:02.533Z,91.27
2018-12-17T17:37:31.726Z,88.17
2018-12-17T17:40:00.868Z,95.20
2018-12-17T17:42:31.101Z,92.37
2018-12-17T17:45:00.172Z,93.03
2018-12-17T17:47:29.216Z,93.30
2018-12-17T17:49:58.238Z,93.60
2018-12-17T17:52:27.329Z,90.53
2018-12-17T17:54:56.441Z,95.97
2018-12-17T17:57:25.629Z,92.73
2018-12-17T17:59:54.739Z,93.43
2018-12-17T18:02:23.743Z,91.63
2018-12-17T18:04:52.774Z,92.20
2018-12-17T18:07:21.862Z,92.97
2018-12-17T18:09:50.992Z,105.40
2018-12-17T18:12:20.078Z,108.07
2018-12-17T18:14:49.145Z,108.50
2018-12-17T18:17:19.120Z,109.90
2018-12-17T18:19:48.279Z,107.63
2018-12-17T18:22:17.301Z,104.20
2018-12-17T18:24:46.395Z,114.87
2018-12-17T18:27:15.492Z,139.43
2018-12-17T18:29:44.602Z,144.80
2018-12-17T18:32:13.845Z,163.07
2018-12-17T18:34:43.061Z,171.80
2018-12-17T18:37:12.175Z,178.03
2018-12-17T18:39:41.378Z,180.40
2018-12-17T18:42:10.424Z,169.97
2018-12-17T18:44:39.542Z,136.97
2018-12-17T18:47:08.618Z,146.27
2018-12-17T18:49:37.774Z,124.30
2018-12-17T18:52:06.884Z,119.70
2018-12-17T18:54:35.925Z,113.67
2018-12-17T18:57:05.057Z,112.17
2018-12-17T18:59:34.206Z,115.07
2018-12-17T19:02:03.361Z,112.80
2018-12-17T19:04:32.661Z,111.87
2018-12-17T19:07:01.776Z,113.23
2018-12-17T19:09:30.969Z,109.60
2018-12-17T19:12:00.055Z,111.07
2018-12-17T19:14:29.154Z,115.90
2018-12-17T19:16:58.402Z,132.87
2018-12-17T19:19:27.474Z,141.23
2018-12-17T19:21:56.968Z,150.07
2018-12-17T19:24:27.377Z,148.33
2018-12-17T19:26:56.509Z,119.37
2018-12-17T19:29:25.552Z,121.23
2018-12-17T19:31:54.608Z,119.20
2018-12-17T19:34:23.768Z,118.13
2018-12-17T19:36:52.791Z,125.83
2018-12-17T19:39:21.927Z,122.73
2018-12-17T19:41:51.214Z,123.97
2018-12-17T19:44:20.372Z,127.33
2018-12-17T19:46:49.508Z,126.57
2018-12-17T19:49:18.866Z,126.87
2018-12-17T19:51:48.079Z,129.80
2018-12-17T19:54:17.208Z,128.57
2018-12-17T19:56:46.224Z,128.60
2018-12-17T19:59:15.359Z,129.37
2018-12-17T20:01:44.561Z,136.80
2018-12-17T20:04:13.662Z,144.67
2018-12-17T20:06:42.815Z,145.20
2018-12-17T20:09:12.979Z,148.00
2018-12-17T20:11:42.452Z,148.73
2018-12-17T20:14:11.570Z,148.03
2018-12-17T20:16:41.141Z,146.97
2018-12-17T20:19:10.314Z,201.40
2018-12-17T20:21:39.543Z,197.50
2018-12-17T20:24:08.613Z,197.77
2018-12-17T20:26:37.632Z,189.67
2018-12-17T20:29:06.661Z,183.13
2018-12-17T20:31:35.793Z,186.60
2018-12-17T20:34:04.940Z,196.20
2018-12-17T20:36:33.977Z,201.43
2018-12-17T20:39:04.969Z,267.03
2018-12-17T20:41:36.151Z,223.90
2018-12-17T20:44:05.224Z,223.77
2018-12-17T20:46:34.244Z,205.73
2018-12-17T20:49:03.398Z,189.00
2018-12-17T20:51:32.475Z,179.87
2018-12-17T20:54:01.489Z,184.37
2018-12-17T20:56:30.536Z,184.70
2018-12-17T20:58:59.652Z,186.67
2018-12-17T21:01:28.749Z,187.23
2018-12-17T21:03:57.816Z,204.50
2018-12-17T21:06:26.844Z,206.40
2018-12-17T21:08:56.944Z,194.23
2018-12-17T21:11:25.997Z,194.50
2018-12-17T21:13:55.065Z,193.00
2018-12-17T21:16:24.167Z,202.57
2018-12-17T21:18:53.201Z,219.27
2018-12-17T21:21:22.248Z,233.50
2018-12-17T21:23:51.282Z,219.17
2018-12-17T21:26:20.385Z,218.73
2018-12-17T21:28:49.619Z,213.17
2018-12-17T21:31:18.768Z,200.27
2018-12-17T21:33:47.981Z,192.27
2018-12-17T21:36:17.282Z,186.53
2018-12-17T21:38:46.497Z,188.47
2018-12-17T21:41:15.806Z,190.10
2018-12-17T21:43:45.199Z,196.80
2018-12-17T21:46:14.225Z,241.37
2018-12-17T21:48:43.446Z,260.40
2018-12-17T21:51:12.700Z,250.13
2018-12-17T21:53:41.758Z,229.50
2018-12-17T21:56:10.861Z,229.00
2018-12-17T21:58:40.089Z,214.60
2018-12-17T22:01:09.216Z,230.70
2018-12-17T22:03:38.637Z,245.50
2018-12-17T22:06:07.697Z,243.07
2018-12-17T22:08:36.797Z,237.40
2018-12-17T22:11:07.910Z,238.87
2018-12-17T22:13:37.036Z,233.87
2018-12-17T22:16:06.537Z,234.57
2018-12-17T22:18:35.718Z,233.23
2018-12-17T22:21:04.973Z,218.30
2018-12-17T22:23:34.321Z,222.70
2018-12-17T22:26:03.549Z,215.33
2018-12-17T22:28:32.577Z,218.97
2018-12-17T22:31:01.612Z,216.53
2018-12-17T22:33:31.161Z,206.10
2018-12-17T22:36:00.304Z,211.30
2018-12-17T22:38:29.448Z,200.50
2018-12-17T22:40:58.525Z,179.80
2018-12-17T22:43:27.620Z,159.03
2018-12-17T22:45:56.634Z,154.63
2018-12-17T22:48:25.857Z,178.27
2018-12-17T22:50:54.872Z,174.87
2018-12-17T22:53:23.928Z,175.47
2018-12-17T22:55:53.351Z,178.43
2018-12-17T22:58:22.805Z,186.53
2018-12-17T23:00:51.993Z,174.57
2018-12-17T23:03:26.254Z,159.97
2018-12-17T23:05:52.165Z,147.27
2018-12-17T23:08:21.272Z,150.47
2018-12-17T23:11:01.879Z,134.97
2018-12-17T23:13:42.048Z,151.63
2018-12-17T23:16:22.345Z,163.80
2018-12-17T23:18:50.328Z,139.30
2018-12-17T23:21:21.555Z,157.53
2018-12-17T23:23:52.656Z,143.93
2018-12-17T23:26:21.798Z,127.43
2018-12-17T23:28:50.953Z,129.67
2018-12-17T23:31:19.948Z,117.50
2018-12-17T23:33:49.012Z,116.13
2018-12-17T23:36:18.679Z,116.40
2018-12-17T23:38:48.076Z,117.33
2018-12-17T23:41:17.167Z,105.30
2018-12-17T23:43:46.174Z,114.20
2018-12-17T23:46:15.236Z,121.00
2018-12-17T23:48:44.284Z,114.37
2018-12-17T23:51:13.805Z,108.13
2018-12-17T23:53:42.877Z,109.07
2018-12-17T23:56:12.860Z,118.70
2018-12-17T23:58:42.201Z,112.93
